createdAt,value
2022-09-07T00:00:59.353Z,52.47
2022-09-07T00:03:27.582Z,52.37
2022-09-07T00:05:55.753Z,52.23
2022-09-07T00:08:27.072Z,52.10
2022-09-07T00:10:57.349Z,52.16
2022-09-07T00:13:28.688Z,52.44
2022-09-07T00:15:56.831Z,52.50
2022-09-07T00:18:25.188Z,52.26
2022-09-07T00:20:59.487Z,52.18
2022-09-07T00:23:28.953Z,52.38
2022-09-07T00:26:01.286Z,52.02
2022-09-07T00:28:31.810Z,52.14
2022-09-07T00:31:00.208Z,51.98
2022-09-07T00:33:28.556Z,52.10
2022-09-07T00:35:56.555Z,52.16
2022-09-07T00:38:24.625Z,52.19
2022-09-07T00:40:53.400Z,52.31
2022-09-07T00:43:34.411Z,51.96
2022-09-07T00:46:03.356Z,52.47
2022-09-07T00:48:36.386Z,52.00
2022-09-07T00:51:07.861Z,51.97
2022-09-07T00:53:40.112Z,52.04
2022-09-07T00:56:09.099Z,52.38
2022-09-07T00:58:42.237Z,52.35
2022-09-07T01:01:10.974Z,52.33
2022-09-07T01:03:45.029Z,51.94
2022-09-07T01:06:17.988Z,52.15
2022-09-07T01:08:48.863Z,52.23
2022-09-07T01:11:18.136Z,51.93
2022-09-07T01:13:49.066Z,52.35
2022-09-07T01:16:31.582Z,51.81
2022-09-07T01:19:15.130Z,52.17
2022-09-07T01:21:58.272Z,51.81
2022-09-07T01:25:01.813Z,51.96
2022-09-07T01:28:01.651Z,51.69
2022-09-07T01:30:33.193Z,52.18
2022-09-07T01:33:24.677Z,51.92
2022-09-07T01:36:01.524Z,52.03
2022-09-07T01:38:37.517Z,51.95
2022-09-07T01:41:11.119Z,52.19
2022-09-07T01:43:47.185Z,51.92
2022-09-07T01:46:19.982Z,51.98
2022-09-07T01:48:52.014Z,52.06
2022-09-07T01:51:22.602Z,52.29
2022-09-07T01:53:54.966Z,52.33
2022-09-07T01:56:29.215Z,51.82
2022-09-07T01:59:02.285Z,52.14
2022-09-07T02:01:34.804Z,52.14
2022-09-07T02:04:08.744Z,52.14
2022-09-07T02:06:43.891Z,51.92
2022-09-07T02:09:17.163Z,51.95
2022-09-07T02:11:47.854Z,52.25
2022-09-07T02:14:24.147Z,52.00
2022-09-07T02:16:59.611Z,52.17
2022-09-07T02:19:31.391Z,51.81
2022-09-07T02:22:03.648Z,51.80
2022-09-07T02:24:37.838Z,51.83
2022-09-07T02:27:12.230Z,51.98
2022-09-07T02:29:41.798Z,52.12
2022-09-07T02:32:09.771Z,51.87
2022-09-07T02:34:38.202Z,51.86
2022-09-07T02:37:10.181Z,51.83
2022-09-07T02:39:38.603Z,51.99
2022-09-07T02:42:07.121Z,51.89
2022-09-07T02:44:38.778Z,51.76
2022-09-07T02:47:18.626Z,51.60
2022-09-07T02:50:13.398Z,51.73
2022-09-07T02:52:51.305Z,51.80
2022-09-07T02:55:31.204Z,51.75
2022-09-07T02:58:13.023Z,51.66
2022-09-07T03:00:48.887Z,52.13
2022-09-07T03:03:24.802Z,51.81
2022-09-07T03:06:00.127Z,51.65
2022-09-07T03:08:33.524Z,51.75
2022-09-07T03:11:02.472Z,51.78
2022-09-07T03:13:31.878Z,51.96
2022-09-07T03:16:00.271Z,51.70
2022-09-07T03:18:30.034Z,51.90
2022-09-07T03:20:58.410Z,51.74
2022-09-07T03:23:26.364Z,51.79
2022-09-07T03:25:54.514Z,51.73
2022-09-07T03:28:22.495Z,51.60
2022-09-07T03:30:50.504Z,51.99
2022-09-07T03:33:18.890Z,51.70
2022-09-07T03:35:58.480Z,51.33
2022-09-07T03:38:26.652Z,51.57
2022-09-07T03:41:00.005Z,51.76
2022-09-07T03:43:28.379Z,51.54
2022-09-07T03:46:00.818Z,51.52
2022-09-07T03:48:29.399Z,51.61
2022-09-07T03:51:00.093Z,51.71
2022-09-07T03:53:28.504Z,51.69
2022-09-07T03:56:00.998Z,51.63
2022-09-07T03:58:31.126Z,51.53
2022-09-07T04:00:59.755Z,51.37
2022-09-07T04:03:28.621Z,51.42
2022-09-07T04:05:57.425Z,51.80
2022-09-07T04:08:27.699Z,51.68
2022-09-07T04:10:57.727Z,51.51
2022-09-07T04:13:26.220Z,51.79
2022-09-07T04:15:54.618Z,51.39
2022-09-07T04:18:22.678Z,51.82
2022-09-07T04:20:51.139Z,51.38
2022-09-07T04:23:19.998Z,51.41
2022-09-07T04:25:50.015Z,51.35
2022-09-07T04:28:19.329Z,51.73
2022-09-07T04:30:47.998Z,51.62
2022-09-07T04:33:16.126Z,51.33
2022-09-07T04:35:44.385Z,51.70
2022-09-07T04:38:16.401Z,51.44
2022-09-07T04:40:44.504Z,51.36
2022-09-07T04:43:16.600Z,51.46
2022-09-07T04:45:44.641Z,51.64
2022-09-07T04:48:12.591Z,51.36
2022-09-07T04:50:40.506Z,51.69
2022-09-07T04:53:08.448Z,51.42
2022-09-07T04:55:36.370Z,51.32
2022-09-07T04:58:04.335Z,51.70
2022-09-07T05:00:33.624Z,51.54
2022-09-07T05:03:01.555Z,51.66
2022-09-07T05:05:29.463Z,51.48
2022-09-07T05:07:57.614Z,51.26
2022-09-07T05:10:25.667Z,51.68
2022-09-07T05:12:53.679Z,51.28
2022-09-07T05:15:21.727Z,51.22
2022-09-07T05:17:51.306Z,51.65
2022-09-07T05:20:20.460Z,51.48
2022-09-07T05:22:48.609Z,51.41
2022-09-07T05:25:16.575Z,51.10
2022-09-07T05:27:44.504Z,51.17
2022-09-07T05:33:04.101Z,51.56
2022-09-07T05:35:32.220Z,51.43
2022-09-07T05:38:00.208Z,51.56
2022-09-07T05:40:31.843Z,51.58
2022-09-07T05:43:00.077Z,51.16
2022-09-07T05:45:28.104Z,51.06
2022-09-07T05:47:56.541Z,50.99
2022-09-07T05:50:25.833Z,51.22
2022-09-07T05:52:53.926Z,51.09
2022-09-07T05:55:30.048Z,51.20
2022-09-07T05:57:58.671Z,51.03
2022-09-07T06:00:26.602Z,51.19
2022-09-07T06:02:54.676Z,51.19
2022-09-07T06:05:22.818Z,51.35
2022-09-07T06:07:52.927Z,51.01
2022-09-07T06:13:09.671Z,50.96
2022-09-07T06:15:37.614Z,51.46
2022-09-07T06:18:05.528Z,51.00
2022-09-07T06:20:33.438Z,51.35
2022-09-07T06:23:02.762Z,51.30
2022-09-07T06:25:30.739Z,51.03
2022-09-07T06:27:59.679Z,51.21
2022-09-07T06:30:27.695Z,51.31
2022-09-07T06:32:55.608Z,51.28
2022-09-07T06:35:23.556Z,51.11
2022-09-07T06:37:51.525Z,50.90
2022-09-07T06:40:20.856Z,50.82
2022-09-07T06:42:48.878Z,50.96
2022-09-07T06:45:16.860Z,51.14
2022-09-07T06:47:44.771Z,50.88
2022-09-07T06:50:12.973Z,51.08
2022-09-07T06:55:30.358Z,50.94
2022-09-07T06:57:58.308Z,50.94
2022-09-07T07:00:26.498Z,51.08
2022-09-07T07:02:54.543Z,50.72
2022-09-07T07:05:22.583Z,50.99
2022-09-07T07:07:50.722Z,50.95
2022-09-07T07:10:23.715Z,51.08
2022-09-07T07:12:57.659Z,51.10
2022-09-07T07:15:28.498Z,50.70
2022-09-07T07:18:02.528Z,51.05
2022-09-07T07:20:42.777Z,50.68
2022-09-07T07:23:12.355Z,50.69
2022-09-07T07:25:41.709Z,51.11
2022-09-07T07:31:00.363Z,50.72
2022-09-07T07:33:32.088Z,51.03
2022-09-07T07:36:11.358Z,50.94
2022-09-07T07:44:21.107Z,50.82
2022-09-07T07:46:50.223Z,50.83
2022-09-07T07:49:18.357Z,51.01
2022-09-07T07:54:36.166Z,50.65
2022-09-07T07:57:04.339Z,50.82
2022-09-07T07:59:33.695Z,50.88
2022-09-07T08:02:04.817Z,51.00
2022-09-07T08:04:33.850Z,51.02
2022-09-07T08:07:05.560Z,50.92
2022-09-07T08:09:38.125Z,50.60
2022-09-07T08:12:06.207Z,50.78
2022-09-07T08:14:40.953Z,50.78
2022-09-07T08:17:10.029Z,50.61
2022-09-07T08:19:38.073Z,51.02
2022-09-07T08:22:06.450Z,50.76
2022-09-07T08:24:34.733Z,50.77
2022-09-07T08:27:02.983Z,50.65
2022-09-07T08:29:34.614Z,50.80
2022-09-07T08:32:06.695Z,50.88
2022-09-07T08:34:37.364Z,50.65
2022-09-07T08:37:05.515Z,51.16
2022-09-07T08:39:33.808Z,50.88
2022-09-07T08:42:23.784Z,51.00
2022-09-07T08:44:57.927Z,50.68
2022-09-07T08:47:34.908Z,50.94
2022-09-07T08:50:07.867Z,51.02
2022-09-07T08:52:46.820Z,50.89
2022-09-07T08:55:20.545Z,50.97
2022-09-07T08:57:55.240Z,50.62
2022-09-07T09:00:23.743Z,50.67
2022-09-07T09:05:50.020Z,51.00
2022-09-07T09:08:32.733Z,50.68
2022-09-07T09:11:07.476Z,50.82
2022-09-07T09:13:47.959Z,50.77
2022-09-07T09:16:21.868Z,50.89
2022-09-07T09:19:23.556Z,50.24
2022-09-07T09:22:02.649Z,50.71
2022-09-07T09:24:37.952Z,50.45
2022-09-07T09:27:06.428Z,50.63
2022-09-07T09:29:34.783Z,50.62
2022-09-07T09:32:32.865Z,50.31
2022-09-07T09:35:05.590Z,50.50
2022-09-07T09:37:38.428Z,50.37
2022-09-07T09:40:09.432Z,50.37
2022-09-07T09:42:38.900Z,50.44
2022-09-07T09:45:14.621Z,50.44
2022-09-07T09:47:42.843Z,50.79
2022-09-07T09:53:26.779Z,50.37
2022-09-07T09:55:55.934Z,50.40
2022-09-07T10:01:27.100Z,50.65
2022-09-07T10:03:56.324Z,50.41
2022-09-07T10:06:27.282Z,50.43
2022-09-07T10:08:58.588Z,50.78
2022-09-07T10:14:37.573Z,50.40
2022-09-07T10:17:14.472Z,50.54
2022-09-07T10:19:44.614Z,50.65
2022-09-07T10:22:32.228Z,50.26
2022-09-07T10:25:01.392Z,50.72
2022-09-07T10:27:36.639Z,50.31
2022-09-07T10:30:12.206Z,50.64
2022-09-07T10:32:52.253Z,50.24
2022-09-07T10:35:27.209Z,50.22
2022-09-07T10:38:06.104Z,50.19
2022-09-07T10:40:38.554Z,50.18
2022-09-07T10:43:21.811Z,50.28
2022-09-07T10:49:21.613Z,50.37
2022-09-07T10:52:01.259Z,50.43
2022-09-07T10:54:39.412Z,50.34
2022-09-07T10:57:22.223Z,50.40
2022-09-07T11:00:07.925Z,50.01
2022-09-07T11:05:57.582Z,50.28
2022-09-07T11:14:25.616Z,50.14
2022-09-07T11:16:57.904Z,50.16
2022-09-07T11:19:37.889Z,50.34
2022-09-07T11:22:17.295Z,50.26
2022-09-07T11:27:45.998Z,50.28
2022-09-07T11:30:21.144Z,50.54
2022-09-07T11:32:59.359Z,50.25
2022-09-07T11:35:36.372Z,50.51
2022-09-07T11:38:14.269Z,50.51
2022-09-07T11:40:52.331Z,50.57
2022-09-07T11:43:26.089Z,50.38
2022-09-07T11:45:59.797Z,50.38
2022-09-07T11:48:34.298Z,50.23
2022-09-07T11:51:09.794Z,50.31
2022-09-07T11:53:41.140Z,50.24
2022-09-07T11:56:18.981Z,49.87
2022-09-07T11:59:28.190Z,50.02
2022-09-07T12:02:12.612Z,49.97
2022-09-07T12:04:58.319Z,50.40
2022-09-07T12:07:56.558Z,50.16
2022-09-07T12:10:38.921Z,50.23
2022-09-07T12:13:30.036Z,50.39
2022-09-07T12:16:05.095Z,50.16
2022-09-07T12:19:02.907Z,50.13
2022-09-07T12:21:41.672Z,50.08
2022-09-07T12:24:48.577Z,50.18
2022-09-07T12:27:39.761Z,50.19
2022-09-07T12:30:52.078Z,50.13
2022-09-07T12:33:33.233Z,50.11
2022-09-07T12:36:02.245Z,50.49
2022-09-07T12:39:07.355Z,50.03
2022-09-07T12:41:44.593Z,50.29
2022-09-07T12:44:20.696Z,50.57
2022-09-07T12:46:52.991Z,50.59
2022-09-07T12:49:44.820Z,50.13
2022-09-07T12:52:34.329Z,50.34
2022-09-07T12:55:29.726Z,50.26
2022-09-07T12:58:20.389Z,50.57
2022-09-07T13:01:05.259Z,50.47
2022-09-07T13:03:56.983Z,50.14
2022-09-07T13:09:35.523Z,50.21
2022-09-07T13:15:29.647Z,50.24
2022-09-07T13:17:58.411Z,49.93
2022-09-07T13:20:36.134Z,50.13
2022-09-07T13:23:26.655Z,49.90
2022-09-07T13:25:58.994Z,49.96
2022-09-07T13:28:32.771Z,50.05
2022-09-07T13:31:09.971Z,49.78
2022-09-07T13:33:50.447Z,49.94
2022-09-07T13:36:36.108Z,49.94
2022-09-07T13:39:08.981Z,50.16
2022-09-07T13:41:42.478Z,50.26
2022-09-07T13:44:26.390Z,49.68
2022-09-07T13:47:03.910Z,50.04
2022-09-07T13:49:56.015Z,49.53
2022-09-07T13:52:33.358Z,49.73
2022-09-07T13:55:22.651Z,49.02
2022-09-07T13:58:04.109Z,49.42
2022-09-07T14:00:32.999Z,49.49
2022-09-07T14:03:07.193Z,49.09
2022-09-07T14:05:36.266Z,49.01
2022-09-07T14:08:04.784Z,48.87
2022-09-07T14:10:34.316Z,49.21
2022-09-07T14:13:08.467Z,48.91
2022-09-07T14:15:40.798Z,48.70
2022-09-07T14:18:14.012Z,48.14
2022-09-07T14:20:46.163Z,48.23
2022-09-07T14:23:23.010Z,48.34
2022-09-07T14:26:17.560Z,47.80
2022-09-07T14:28:47.709Z,48.56
2022-09-07T14:31:17.950Z,48.59
2022-09-07T14:33:50.532Z,48.09
2022-09-07T14:36:41.849Z,48.51
2022-09-07T14:39:09.256Z,48.04
2022-09-07T14:41:41.529Z,48.05
2022-09-07T14:44:28.603Z,47.48
2022-09-07T14:46:57.534Z,48.27
2022-09-07T14:49:26.209Z,48.35
2022-09-07T14:51:56.073Z,48.16
2022-09-07T14:54:27.868Z,48.61
2022-09-07T14:57:25.793Z,47.75
2022-09-07T14:59:57.195Z,48.24
2022-09-07T15:02:33.293Z,48.04
2022-09-07T15:05:20.466Z,47.77
2022-09-07T15:07:50.334Z,48.51
2022-09-07T15:10:29.936Z,48.02
2022-09-07T15:13:01.664Z,48.44
2022-09-07T15:15:32.212Z,48.39
2022-09-07T15:18:08.187Z,48.35
2022-09-07T15:20:39.770Z,48.34
2022-09-07T15:23:11.674Z,48.24
2022-09-07T15:25:40.812Z,48.02
2022-09-07T15:34:00.975Z,48.43
2022-09-07T15:36:31.936Z,48.39
2022-09-07T15:39:01.221Z,47.96
2022-09-07T15:41:31.195Z,48.42
2022-09-07T15:44:00.974Z,48.15
2022-09-07T15:46:29.114Z,48.15
2022-09-07T15:48:58.392Z,48.29
2022-09-07T15:54:16.006Z,48.38
2022-09-07T15:57:48.465Z,48.58
2022-09-07T15:59:34.922Z,48.34
2022-09-07T16:02:03.364Z,48.58
2022-09-07T16:04:31.857Z,48.88
2022-09-07T16:07:01.591Z,48.73
2022-09-07T16:09:29.899Z,48.67
2022-09-07T16:13:00.033Z,48.81
2022-09-07T16:14:47.645Z,48.96
2022-09-07T16:20:05.036Z,48.95
2022-09-07T16:25:22.567Z,48.99
2022-09-07T16:27:50.693Z,48.73
2022-09-07T16:30:20.392Z,48.90
2022-09-07T16:32:50.885Z,48.92
2022-09-07T16:35:19.040Z,48.62
2022-09-07T16:40:35.283Z,48.92
2022-09-07T16:43:03.354Z,48.82
2022-09-07T16:48:21.215Z,48.91
2022-09-07T16:51:00.337Z,48.81
2022-09-07T16:53:30.472Z,48.99
2022-09-07T16:56:02.301Z,49.02
2022-09-07T16:58:38.952Z,48.97
2022-09-07T17:01:10.459Z,49.02
2022-09-07T17:03:39.286Z,48.99
2022-09-07T17:06:09.411Z,48.76
2022-09-07T17:08:39.057Z,49.01
2022-09-07T17:11:09.379Z,49.13
2022-09-07T17:13:39.145Z,49.27
2022-09-07T17:16:11.525Z,49.17
2022-09-07T17:21:31.288Z,49.35
2022-09-07T17:24:01.723Z,49.32
2022-09-07T17:26:31.950Z,49.15
2022-09-07T17:29:00.922Z,49.13
2022-09-07T17:34:20.857Z,49.28
2022-09-07T17:36:49.304Z,49.31
2022-09-07T17:39:19.095Z,49.24
2022-09-07T17:41:48.497Z,49.50
2022-09-07T17:44:17.020Z,49.16
2022-09-07T17:46:46.579Z,49.27
2022-09-07T17:49:16.834Z,49.40
2022-09-07T17:51:46.043Z,49.74
2022-09-07T17:54:15.976Z,49.71
2022-09-07T17:56:45.006Z,49.59
2022-09-07T18:02:03.028Z,49.40
2022-09-07T18:04:31.166Z,49.83
2022-09-07T18:06:59.336Z,49.38
2022-09-07T18:09:27.461Z,49.57
2022-09-07T18:11:55.566Z,49.50
2022-09-07T18:14:23.779Z,49.47
2022-09-07T18:16:52.363Z,50.04
2022-09-07T18:19:21.922Z,49.42
2022-09-07T18:21:50.572Z,49.42
2022-09-07T18:24:23.308Z,49.94
2022-09-07T18:26:53.460Z,49.84
2022-09-07T18:29:29.346Z,50.02
2022-09-07T18:31:59.436Z,49.85
2022-09-07T18:34:30.934Z,50.01
2022-09-07T18:37:00.010Z,49.67
2022-09-07T18:39:28.754Z,50.13
2022-09-07T18:41:57.257Z,49.90
2022-09-07T18:47:21.745Z,49.96
2022-09-07T18:49:54.692Z,49.77
2022-09-07T18:55:11.975Z,50.20
2022-09-07T18:57:40.862Z,50.16
2022-09-07T19:00:11.210Z,50.40
2022-09-07T19:02:39.430Z,50.19
2022-09-07T19:07:59.662Z,50.42
2022-09-07T19:10:27.943Z,50.32
2022-09-07T19:12:56.934Z,50.12
2022-09-07T19:15:25.124Z,50.21
2022-09-07T19:17:53.285Z,50.41
2022-09-07T19:20:23.109Z,50.31
2022-09-07T19:22:51.200Z,50.43
2022-09-07T19:25:20.224Z,50.32
2022-09-07T19:27:48.355Z,50.57
2022-09-07T19:30:17.484Z,50.32
2022-09-07T19:32:45.805Z,50.60
2022-09-07T19:35:14.028Z,50.51
2022-09-07T19:37:43.551Z,50.39
2022-09-07T19:40:17.170Z,50.15
2022-09-07T19:42:47.693Z,50.20
2022-09-07T19:45:15.887Z,50.19
2022-09-07T19:47:44.039Z,50.19
2022-09-07T19:50:12.518Z,50.57
2022-09-07T19:52:41.071Z,50.53
2022-09-07T19:55:11.558Z,50.61
2022-09-07T19:57:40.033Z,50.51
2022-09-07T20:00:09.723Z,50.36
2022-09-07T20:02:38.785Z,50.60
2022-09-07T20:05:07.899Z,50.61
2022-09-07T20:07:36.049Z,50.43
2022-09-07T20:10:04.316Z,50.62
2022-09-07T20:12:34.078Z,50.31
2022-09-07T20:15:02.264Z,50.55
2022-09-07T20:17:35.072Z,50.46
2022-09-07T20:20:04.017Z,50.50
2022-09-07T20:22:32.319Z,50.67
2022-09-07T20:25:00.472Z,50.65
2022-09-07T20:27:28.911Z,50.11
2022-09-07T20:29:58.479Z,50.62
2022-09-07T20:32:28.287Z,50.34
2022-09-07T20:34:56.540Z,50.56
2022-09-07T20:37:27.526Z,50.66
2022-09-07T20:39:55.872Z,50.39
2022-09-07T20:42:23.972Z,50.21
2022-09-07T20:44:53.200Z,50.19
2022-09-07T20:47:22.685Z,50.59
2022-09-07T20:49:52.224Z,50.55
2022-09-07T20:52:20.331Z,50.25
2022-09-07T20:54:48.432Z,50.50
2022-09-07T20:57:16.483Z,50.25
2022-09-07T20:59:44.631Z,50.45
2022-09-07T21:02:12.776Z,50.42
2022-09-07T21:04:44.479Z,50.18
2022-09-07T21:07:12.632Z,50.21
2022-09-07T21:09:40.753Z,50.41
2022-09-07T21:12:09.218Z,50.33
2022-09-07T21:14:37.289Z,50.18
2022-09-07T21:17:05.557Z,50.04
2022-09-07T21:19:33.680Z,49.96
2022-09-07T21:22:03.180Z,50.39
2022-09-07T21:24:31.267Z,50.21
2022-09-07T21:26:59.488Z,50.33
2022-09-07T21:29:27.832Z,50.35
2022-09-07T21:31:56.582Z,50.12
2022-09-07T21:34:24.905Z,50.21
2022-09-07T21:36:53.476Z,50.24
2022-09-07T21:39:22.969Z,50.39
2022-09-07T21:41:51.220Z,49.91
2022-09-07T21:44:19.294Z,49.99
2022-09-07T21:46:47.505Z,50.30
2022-09-07T21:49:15.636Z,50.26
2022-09-07T21:51:43.770Z,50.18
2022-09-07T21:54:11.881Z,49.86
2022-09-07T21:56:46.393Z,49.81
2022-09-07T21:59:15.041Z,50.20
2022-09-07T22:01:43.235Z,49.87
2022-09-07T22:04:12.160Z,49.85
2022-09-07T22:06:41.116Z,49.72
2022-09-07T22:09:09.245Z,49.98
2022-09-07T22:11:37.375Z,49.80
2022-09-07T22:14:07.631Z,49.80
2022-09-07T22:16:36.638Z,50.00
2022-09-07T22:19:05.191Z,49.79
2022-09-07T22:21:34.092Z,49.88
2022-09-07T22:24:03.821Z,49.71
2022-09-07T22:26:34.080Z,49.80
2022-09-07T22:29:02.287Z,50.23
2022-09-07T22:31:33.133Z,49.76
2022-09-07T22:34:02.781Z,50.09
2022-09-07T22:36:32.515Z,49.99
2022-09-07T22:39:02.407Z,50.13
2022-09-07T22:41:32.641Z,50.00
2022-09-07T22:44:01.081Z,50.27
2022-09-07T22:46:32.111Z,50.15
2022-09-07T22:49:00.392Z,50.23
2022-09-07T22:51:28.942Z,50.22
2022-09-07T22:53:57.433Z,50.25
2022-09-07T22:56:27.773Z,50.23
2022-09-07T22:58:58.162Z,50.04
2022-09-07T23:01:26.984Z,49.80
2022-09-07T23:03:57.198Z,50.00
2022-09-07T23:06:27.075Z,49.93
2022-09-07T23:08:56.469Z,50.21
2022-09-07T23:11:25.237Z,50.01
2022-09-07T23:13:54.092Z,49.96
2022-09-07T23:16:22.998Z,50.19
2022-09-07T23:18:51.465Z,49.88
2022-09-07T23:21:21.104Z,50.20
2022-09-07T23:23:53.239Z,50.09
2022-09-07T23:26:22.074Z,49.87
2022-09-07T23:28:53.589Z,49.96
2022-09-07T23:31:22.108Z,50.20
2022-09-07T23:33:50.699Z,50.14
2022-09-07T23:36:20.939Z,50.10
2022-09-07T23:38:49.864Z,49.88
2022-09-07T23:41:18.640Z,49.89
2022-09-07T23:43:48.326Z,49.94
2022-09-07T23:46:16.769Z,49.82
2022-09-07T23:48:45.929Z,49.92
2022-09-07T23:51:14.342Z,50.21
2022-09-07T23:53:43.811Z,49.95
2022-09-07T23:56:12.304Z,50.15
2022-09-07T23:58:40.351Z,50.10
